Time;durP1;ratioP1;P1;durP2;ratioP2;P2;SDS_P1;SDS_P2;PMS_P1;PMS_P2;Temp;Humidity;BMP_temperature;BMP_pressure;BME280_temperature;BME280_humidity;BME280_pressure;Samples;Min_cycle;Max_cycle;Signal;HPM_P1;HPM_P2
2022/11/08 00:01:48;;;;;;;60.77;6.20;;;4.80;99.90;;;;;;5080157;28;20196;-76
2022/11/08 00:04:16;;;;;;;24.13;5.63;;;4.80;99.90;;;;;;5064415;28;20439;-77
2022/11/08 00:14:57;;;;;;;19.23;5.63;;;4.80;99.90;;;;;;5081755;28;20515;-78
2022/11/08 00:17:25;;;;;;;18.47;4.77;;;4.80;99.90;;;;;;5082515;28;20443;-77
2022/11/08 00:19:51;;;;;;;10.07;5.10;;;4.80;99.90;;;;;;5070801;28;21047;-77
2022/11/08 00:22:18;;;;;;;26.20;5.27;;;4.80;99.90;;;;;;5089416;28;20408;-77
2022/11/08 00:24:44;;;;;;;26.90;6.00;;;4.80;99.90;;;;;;5080527;28;20704;-77
2022/11/08 00:27:12;;;;;;;18.43;5.33;;;4.80;99.90;;;;;;5067167;28;20443;-77
2022/11/08 00:29:38;;;;;;;25.23;6.50;;;4.70;99.90;;;;;;5078515;28;20463;-77
2022/11/08 00:32:10;;;;;;;18.13;5.00;;;4.70;99.90;;;;;;5086569;28;20428;-79
2022/11/08 00:34:36;;;;;;;20.43;5.00;;;4.70;99.90;;;;;;5066010;28;20201;-77
2022/11/08 00:37:02;;;;;;;14.00;5.60;;;4.70;99.90;;;;;;5062234;28;20448;-77
2022/11/08 00:39:28;;;;;;;85.27;30.23;;;4.70;99.90;;;;;;5065875;28;20211;-77
2022/11/08 00:41:53;;;;;;;27.20;12.37;;;4.70;99.90;;;;;;5076848;28;20431;-77
2022/11/08 00:44:19;;;;;;;25.67;6.10;;;4.60;99.90;;;;;;5077816;28;20178;-77
2022/11/08 00:46:45;;;;;;;12.73;5.67;;;4.60;99.90;;;;;;5069389;28;20177;-77
2022/11/08 00:49:10;;;;;;;18.40;4.80;;;4.60;99.90;;;;;;5085491;28;20205;-76
2022/11/08 00:51:36;;;;;;;17.30;4.43;;;4.60;99.90;;;;;;5082346;28;20170;-77
2022/11/08 00:54:03;;;;;;;41.90;4.70;;;4.60;99.90;;;;;;5065147;28;20470;-76
2022/11/08 00:56:29;;;;;;;12.67;4.63;;;4.60;99.90;;;;;;5083887;28;20424;-76
2022/11/08 00:58:55;;;;;;;6.77;3.80;;;4.60;99.90;;;;;;5083231;28;20621;-77
2022/11/08 01:01:21;;;;;;;9.60;3.80;;;4.50;99.90;;;;;;5065493;28;20634;-77
2022/11/08 01:03:47;;;;;;;10.60;4.43;;;4.50;99.90;;;;;;5078412;28;20601;-76
2022/11/08 01:06:15;;;;;;;6.20;4.27;;;4.50;99.90;;;;;;5067419;28;20432;-77
2022/11/08 01:08:41;;;;;;;28.43;5.47;;;4.50;99.90;;;;;;5071021;28;20487;-77
2022/11/08 01:11:11;;;;;;;20.03;4.90;;;4.50;99.90;;;;;;5069254;28;20451;-77
2022/11/08 01:13:38;;;;;;;11.40;4.60;;;4.50;99.90;;;;;;5058889;28;20463;-78
2022/11/08 01:16:31;;;;;;;17.77;5.17;;;4.50;99.90;;;;;;5069450;28;20430;-76
2022/11/08 01:18:58;;;;;;;19.80;4.23;;;4.40;99.90;;;;;;5062699;28;20475;-76
2022/11/08 01:21:24;;;;;;;15.27;4.73;;;4.40;99.90;;;;;;5080296;28;20435;-76
2022/11/08 01:23:52;;;;;;;22.77;4.27;;;4.40;99.90;;;;;;5067975;28;20424;-75
2022/11/08 01:26:20;;;;;;;10.07;4.57;;;4.30;99.90;;;;;;5061558;28;20443;-76
2022/11/08 01:28:46;;;;;;;11.03;4.20;;;4.30;99.90;;;;;;5078473;28;20451;-76
2022/11/08 01:31:18;;;;;;;13.43;3.40;;;4.30;99.90;;;;;;5086681;28;20460;-76
2022/11/08 01:33:44;;;;;;;11.57;4.20;;;4.30;99.90;;;;;;5061134;28;20451;-76
2022/11/08 01:36:12;;;;;;;7.27;4.90;;;4.20;99.90;;;;;;5080352;28;20430;-76
2022/11/08 01:38:38;;;;;;;10.10;4.00;;;4.20;99.90;;;;;;5070857;28;20250;-76
2022/11/08 01:41:04;;;;;;;5.23;4.63;;;4.20;99.90;;;;;;5071221;28;20428;-76
2022/11/08 01:43:30;;;;;;;15.93;4.50;;;4.20;99.90;;;;;;5073915;28;20814;-75
2022/11/08 01:46:16;;;;;;;6.60;4.80;;;4.20;99.90;;;;;;5073138;28;20426;-76
2022/11/08 01:48:56;;;;;;;24.77;5.53;;;4.10;99.90;;;;;;5070456;28;20705;-76
2022/11/08 01:51:34;;;;;;;7.10;4.10;;;4.10;99.90;;;;;;5087399;28;20427;-75
2022/11/08 01:54:02;;;;;;;7.23;4.10;;;4.10;99.90;;;;;;5056735;28;20832;-76
2022/11/08 01:56:28;;;;;;;51.37;5.63;;;4.10;99.90;;;;;;5060879;28;20432;-76
2022/11/08 01:58:56;;;;;;;5.53;4.00;;;4.00;99.90;;;;;;5071574;28;20554;-76
2022/11/08 02:01:22;;;;;;;8.30;4.20;;;4.00;99.90;;;;;;5065412;28;20523;-75
2022/11/08 02:03:48;;;;;;;6.93;4.87;;;4.00;99.90;;;;;;5081182;28;20550;-76
2022/11/08 02:06:14;;;;;;;8.77;4.43;;;4.00;99.90;;;;;;5085833;28;20268;-76
2022/11/08 02:08:42;;;;;;;17.53;4.77;;;4.00;99.90;;;;;;5066752;28;20459;-75
2022/11/08 02:11:11;;;;;;;12.63;4.73;;;4.00;99.90;;;;;;5065983;28;20523;-76
2022/11/08 02:13:38;;;;;;;17.97;4.10;;;3.90;99.90;;;;;;5066167;28;20813;-76
2022/11/08 02:16:11;;;;;;;36.63;5.33;;;3.90;99.90;;;;;;5087770;28;20455;-76
2022/11/08 02:18:37;;;;;;;7.50;4.63;;;3.90;99.90;;;;;;5081452;28;20440;-76
2022/11/08 02:21:11;;;;;;;8.93;4.27;;;3.90;99.90;;;;;;5083333;28;20427;-75
2022/11/08 02:23:56;;;;;;;17.43;4.50;;;3.80;99.90;;;;;;5083485;28;20964;-76
2022/11/08 02:26:34;;;;;;;16.90;4.60;;;3.80;99.90;;;;;;5084840;28;20458;-76
2022/11/08 02:29:22;;;;;;;27.03;4.77;;;3.80;99.90;;;;;;5077214;28;20497;-75
2022/11/08 02:31:48;;;;;;;14.43;4.20;;;3.80;99.90;;;;;;5068524;28;20448;-75
2022/11/08 02:34:14;;;;;;;20.40;4.83;;;3.70;99.90;;;;;;5089040;28;20462;-76
2022/11/08 02:36:42;;;;;;;40.17;5.30;;;3.70;99.90;;;;;;5072815;28;20177;-75
2022/11/08 02:39:07;;;;;;;13.60;3.80;;;3.70;99.90;;;;;;5073829;28;20510;-75
2022/11/08 02:41:33;;;;;;;32.10;4.70;;;3.70;99.90;;;;;;5067517;28;20499;-75
2022/11/08 02:43:58;;;;;;;20.17;4.47;;;3.60;99.90;;;;;;5085749;28;20216;-75
2022/11/08 02:46:24;;;;;;;13.17;4.50;;;3.60;99.90;;;;;;5066756;28;20412;-75
2022/11/08 02:48:50;;;;;;;10.67;3.90;;;3.60;99.90;;;;;;5064220;28;20202;-74
2022/11/08 02:51:15;;;;;;;6.67;3.80;;;3.60;99.90;;;;;;5092227;28;20170;-75
2022/11/08 02:53:41;;;;;;;9.30;3.80;;;3.50;99.90;;;;;;5085040;28;20432;-75
2022/11/08 02:56:07;;;;;;;16.20;4.30;;;3.50;99.90;;;;;;5069035;28;20177;-75
2022/11/08 02:58:32;;;;;;;25.23;4.60;;;3.50;99.90;;;;;;5080897;28;20194;-76
2022/11/08 03:00:58;;;;;;;11.60;4.30;;;3.50;99.90;;;;;;5069502;22;20218;-58
2022/11/08 03:03:23;;;;;;;19.47;4.17;;;3.50;99.90;;;;;;5065749;28;20178;-59
2022/11/08 03:05:49;;;;;;;9.53;3.93;;;3.60;99.90;;;;;;5070090;28;20600;-58
2022/11/08 03:08:15;;;;;;;18.67;4.40;;;3.50;99.90;;;;;;5069313;28;20181;-59
2022/11/08 03:10:40;;;;;;;16.80;4.40;;;3.60;99.90;;;;;;5079646;28;20213;-59
2022/11/08 03:13:06;;;;;;;12.73;3.80;;;3.60;99.90;;;;;;5082993;28;20202;-57
2022/11/08 03:15:32;;;;;;;23.40;4.40;;;3.60;99.90;;;;;;5082471;28;20881;-59
2022/11/08 03:17:58;;;;;;;16.43;4.83;;;3.60;99.90;;;;;;5085564;28;20174;-58
2022/11/08 03:20:25;;;;;;;23.23;3.80;;;3.60;99.90;;;;;;5086366;28;20436;-58
2022/11/08 03:22:58;;;;;;;13.80;3.77;;;3.60;99.90;;;;;;5079585;28;20435;-58
2022/11/08 03:25:25;;;;;;;39.50;5.10;;;3.60;99.90;;;;;;5078053;28;20432;-59
2022/11/08 03:27:50;;;;;;;18.60;3.80;;;3.60;99.90;;;;;;5089565;28;20453;-58
2022/11/08 03:30:16;;;;;;;24.53;5.37;;;3.60;99.90;;;;;;5081022;28;20452;-60
2022/11/08 03:32:45;;;;;;;19.70;4.13;;;3.60;99.90;;;;;;5077814;28;20273;-61
2022/11/08 03:35:11;;;;;;;38.87;5.90;;;3.60;99.90;;;;;;5083567;28;20166;-58
2022/11/08 03:37:37;;;;;;;41.37;5.73;;;3.60;99.90;;;;;;5072524;28;20510;-59
2022/11/08 03:40:03;;;;;;;56.43;5.30;;;3.60;99.90;;;;;;5084906;28;20557;-58
2022/11/08 03:42:28;;;;;;;45.00;5.07;;;3.60;99.90;;;;;;5088269;28;20202;-59
2022/11/08 03:44:54;;;;;;;40.67;5.27;;;3.60;99.90;;;;;;5081809;28;20454;-58
2022/11/08 03:47:19;;;;;;;97.40;6.40;;;3.50;99.90;;;;;;5086867;28;20708;-59
2022/11/08 03:49:45;;;;;;;50.13;4.60;;;3.50;99.90;;;;;;5080395;28;20208;-58
2022/11/08 03:52:11;;;;;;;32.30;4.53;;;3.40;99.90;;;;;;5081630;28;20261;-59
2022/11/08 03:54:37;;;;;;;31.30;4.93;;;3.40;99.90;;;;;;5085988;28;20225;-60
2022/11/08 03:57:02;;;;;;;27.67;4.40;;;3.40;99.90;;;;;;5083531;28;20420;-58
2022/11/08 03:59:28;;;;;;;36.73;5.57;;;3.30;99.90;;;;;;5085971;28;20205;-59
2022/11/08 04:01:54;;;;;;;28.43;5.10;;;3.30;99.90;;;;;;5083575;28;20170;-58
2022/11/08 04:04:20;;;;;;;81.67;6.07;;;3.30;99.90;;;;;;5086374;28;20170;-58
2022/11/08 04:06:45;;;;;;;36.47;4.73;;;3.30;99.90;;;;;;5080938;28;20442;-58
2022/11/08 04:09:11;;;;;;;17.43;4.30;;;3.30;99.90;;;;;;5084893;28;20194;-59
2022/11/08 04:17:04;;;;;;;8.00;3.53;;;3.30;99.90;;;;;;5085207;28;20469;-58
2022/11/08 04:22:14;;;;;;;19.33;3.87;;;3.30;99.90;;;;;;5075764;28;20200;-62
2022/11/08 04:24:40;;;;;;;99.00;6.83;;;3.30;99.90;;;;;;5084011;28;21244;-58
2022/11/08 04:27:05;;;;;;;28.47;4.10;;;3.20;99.90;;;;;;5083138;28;20173;-59
2022/11/08 04:29:31;;;;;;;27.20;4.03;;;3.20;99.90;;;;;;5086156;28;20193;-59
2022/11/08 04:31:57;;;;;;;25.40;4.00;;;3.20;99.90;;;;;;5081106;28;20239;-58
2022/11/08 04:34:22;;;;;;;15.37;3.20;;;3.20;99.90;;;;;;5086214;28;20196;-60
2022/11/08 04:36:48;;;;;;;10.70;2.83;;;3.20;99.90;;;;;;5076698;28;20174;-59
2022/11/08 04:39:13;;;;;;;7.37;3.83;;;3.20;99.90;;;;;;5083337;28;20246;-58
2022/11/08 04:41:39;;;;;;;9.77;3.30;;;3.20;99.90;;;;;;5083900;28;20637;-57
2022/11/08 04:44:05;;;;;;;17.10;4.17;;;3.20;99.90;;;;;;5086235;28;20173;-58
2022/11/08 04:46:30;;;;;;;22.20;3.80;;;3.20;99.90;;;;;;5080579;28;20173;-59
2022/11/08 04:48:58;;;;;;;11.17;3.53;;;3.20;99.90;;;;;;5077891;28;20239;-59
2022/11/08 04:51:27;;;;;;;17.17;3.77;;;3.20;99.90;;;;;;5085252;28;20200;-59
2022/11/08 04:53:55;;;;;;;6.80;3.10;;;3.20;99.90;;;;;;5073344;28;20559;-56
2022/11/08 04:56:21;;;;;;;14.50;3.70;;;3.20;99.90;;;;;;5081336;28;20420;-55
2022/11/08 04:58:49;;;;;;;17.43;3.80;;;3.20;99.90;;;;;;5075463;28;20853;-55
2022/11/08 05:01:18;;;;;;;8.33;4.00;;;3.20;99.90;;;;;;5081039;28;20428;-56
2022/11/08 05:03:45;;;;;;;15.27;4.07;;;3.20;99.90;;;;;;5083893;28;21083;-55
2022/11/08 05:06:16;;;;;;;3.90;3.27;;;3.20;99.90;;;;;;5080574;28;20412;-55
2022/11/08 05:08:42;;;;;;;6.77;3.17;;;3.20;99.90;;;;;;5083069;28;20446;-57
2022/11/08 05:11:09;;;;;;;12.30;4.40;;;3.20;99.90;;;;;;5079653;28;20890;-55
2022/11/08 05:13:35;;;;;;;9.87;4.20;;;3.30;99.90;;;;;;5083133;28;20449;-57
2022/11/08 05:16:06;;;;;;;37.90;4.40;;;3.30;99.90;;;;;;5083519;28;20550;-58
2022/11/08 05:18:33;;;;;;;17.10;4.30;;;3.30;99.90;;;;;;5078575;28;20461;-59
2022/11/08 05:23:45;;;;;;;15.33;4.40;;;3.30;99.90;;;;;;5082334;28;20783;-59
2022/11/08 05:26:12;;;;;;;65.70;7.67;;;3.30;99.90;;;;;;5083027;28;20477;-59
2022/11/08 05:28:39;;;;;;;16.00;6.10;;;3.30;99.90;;;;;;5086255;28;20470;-59
2022/11/08 05:31:05;;;;;;;37.13;6.67;;;3.30;99.90;;;;;;5081654;28;20433;-59
2022/11/08 05:33:31;;;;;;;12.47;5.57;;;3.30;99.90;;;;;;5081952;28;20842;-59
2022/11/08 05:36:04;;;;;;;33.27;7.67;;;3.30;99.90;;;;;;5070104;28;20435;-58
2022/11/08 05:38:30;;;;;;;41.83;9.53;;;3.30;99.90;;;;;;5086349;28;21126;-57
2022/11/08 05:41:16;;;;;;;24.83;7.03;;;3.30;99.90;;;;;;5082922;28;20416;-60
2022/11/08 05:43:44;;;;;;;83.00;9.13;;;3.30;99.90;;;;;;5081873;28;20490;-59
2022/11/08 05:46:10;;;;;;;31.40;4.63;;;3.30;99.90;;;;;;5081202;28;21008;-59
2022/11/08 05:48:36;;;;;;;9.47;4.13;;;3.20;99.90;;;;;;5084754;28;20518;-59
2022/11/08 05:51:02;;;;;;;6.50;4.37;;;3.20;99.90;;;;;;5083801;28;20200;-59
2022/11/08 05:53:28;;;;;;;13.50;4.57;;;3.20;99.90;;;;;;5089797;28;20459;-58
2022/11/08 05:55:59;;;;;;;18.47;4.00;;;3.20;99.90;;;;;;5087359;28;20486;-58
2022/11/08 05:58:25;;;;;;;19.63;3.67;;;3.10;99.90;;;;;;5081800;28;20488;-59
2022/11/08 06:01:05;;;;;;;12.77;4.50;;;3.10;99.90;;;;;;5088972;28;20534;-59
2022/11/08 06:03:31;;;;;;;8.83;5.07;;;3.10;99.90;;;;;;5076362;28;20424;-59
2022/11/08 06:06:11;;;;;;;7.80;4.97;;;3.10;99.90;;;;;;5085956;28;20427;-59
2022/11/08 06:08:37;;;;;;;19.43;5.03;;;3.10;99.90;;;;;;5088506;28;20463;-58
2022/11/08 06:11:05;;;;;;;13.73;5.00;;;3.10;99.90;;;;;;5080706;28;20455;-58
2022/11/08 06:13:31;;;;;;;20.73;4.43;;;3.10;99.90;;;;;;5088278;28;20855;-57
2022/11/08 06:16:05;;;;;;;9.30;4.40;;;3.10;99.90;;;;;;5088006;28;20982;-58
2022/11/08 06:18:32;;;;;;;19.83;5.07;;;3.00;99.90;;;;;;5083918;28;20522;-58
2022/11/08 06:20:58;;;;;;;16.10;5.90;;;3.10;99.90;;;;;;5082322;28;20435;-58
2022/11/08 06:23:24;;;;;;;5.27;4.47;;;3.10;99.90;;;;;;5081599;28;20438;-59
2022/11/08 06:25:50;;;;;;;5.33;3.37;;;3.10;99.90;;;;;;5082330;28;20452;-59
2022/11/08 06:28:15;;;;;;;5.03;4.03;;;3.10;99.90;;;;;;5089901;28;20706;-58
2022/11/08 06:30:41;;;;;;;10.43;3.30;;;3.00;99.90;;;;;;5078906;28;20198;-57
2022/11/08 06:33:07;;;;;;;10.00;4.00;;;3.00;99.90;;;;;;5087721;28;20707;-58
2022/11/08 06:35:32;;;;;;;8.40;3.57;;;3.00;99.90;;;;;;5089511;28;20205;-58
2022/11/08 06:38:00;;;;;;;7.00;3.87;;;3.00;99.90;;;;;;5089571;28;20205;-58
2022/11/08 06:40:26;;;;;;;5.30;3.30;;;3.00;99.90;;;;;;5090774;28;20197;-59
2022/11/08 06:42:52;;;;;;;17.20;4.70;;;3.00;99.90;;;;;;5079544;28;20431;-59
2022/11/08 06:45:18;;;;;;;9.00;3.83;;;3.00;99.90;;;;;;5088790;28;20451;-58
2022/11/08 06:47:44;;;;;;;10.10;4.10;;;3.00;99.90;;;;;;5090309;28;20472;-58
2022/11/08 06:50:09;;;;;;;11.83;4.17;;;3.00;99.90;;;;;;5088286;28;20463;-59
2022/11/08 06:52:35;;;;;;;10.23;5.07;;;3.00;99.90;;;;;;5081715;28;20557;-59
2022/11/08 06:55:01;;;;;;;13.63;5.03;;;3.00;99.90;;;;;;5078023;28;20574;-59
2022/11/08 06:57:26;;;;;;;23.60;5.40;;;3.00;99.90;;;;;;5077596;28;20313;-58
2022/11/08 06:59:52;;;;;;;17.33;5.53;;;3.00;99.90;;;;;;5091155;28;20216;-59
2022/11/08 07:02:17;;;;;;;14.83;4.87;;;3.00;99.90;;;;;;5092222;28;20205;-59
2022/11/08 07:04:43;;;;;;;15.63;4.23;;;3.00;99.90;;;;;;5087536;28;20181;-59
2022/11/08 07:07:08;;;;;;;21.83;5.10;;;3.00;99.90;;;;;;5071094;28;20181;-58
2022/11/08 07:09:34;;;;;;;17.37;3.83;;;3.00;99.90;;;;;;5061880;28;20247;-59
2022/11/08 07:11:59;;;;;;;5.27;4.03;;;3.10;99.90;;;;;;5083662;28;20180;-58
2022/11/08 07:14:25;;;;;;;15.33;3.80;;;3.10;99.90;;;;;;5078077;28;20203;-58
2022/11/08 07:16:51;;;;;;;43.80;6.27;;;3.10;99.90;;;;;;5091726;28;20170;-58
2022/11/08 07:19:16;;;;;;;33.10;5.50;;;3.10;99.90;;;;;;5091206;28;20617;-59
2022/11/08 07:21:42;;;;;;;40.73;4.53;;;3.10;99.90;;;;;;5082685;28;20184;-58
2022/11/08 07:24:08;;;;;;;39.17;4.90;;;3.10;99.90;;;;;;5086739;28;20177;-59
2022/11/08 07:26:33;;;;;;;21.97;3.90;;;3.10;99.90;;;;;;5082183;28;20166;-59
2022/11/08 07:28:59;;;;;;;20.57;4.47;;;3.10;99.90;;;;;;5084327;28;20189;-59
2022/11/08 07:31:24;;;;;;;21.77;5.33;;;3.10;99.90;;;;;;5071403;28;20170;-59
2022/11/08 07:33:50;;;;;;;18.60;6.03;;;3.10;99.90;;;;;;5078071;28;20880;-58
2022/11/08 07:36:15;;;;;;;24.70;9.60;;;3.10;99.90;;;;;;5081102;28;20253;-59
2022/11/08 07:38:41;;;;;;;19.73;8.50;;;3.20;99.90;;;;;;5090157;28;20174;-59
2022/11/08 07:41:08;;;;;;;53.07;9.90;;;3.20;99.90;;;;;;5090536;28;20682;-59
2022/11/08 07:43:34;;;;;;;55.30;11.13;;;3.30;99.90;;;;;;5087129;28;20188;-59
2022/11/08 07:46:00;;;;;;;145.17;14.97;;;3.30;99.90;;;;;;5091436;28;20450;-59
2022/11/08 07:48:27;;;;;;;42.00;10.23;;;3.40;99.90;;;;;;5082351;28;20215;-59
2022/11/08 07:50:54;;;;;;;28.90;8.93;;;3.40;99.90;;;;;;5090105;28;20451;-58
2022/11/08 07:53:20;;;;;;;53.30;12.43;;;3.40;99.90;;;;;;5090011;28;20778;-59
2022/11/08 07:55:49;;;;;;;69.10;15.27;;;3.40;99.90;;;;;;5077188;28;20424;-59
2022/11/08 07:58:15;;;;;;;35.47;12.90;;;3.50;99.90;;;;;;5090877;28;20392;-58
2022/11/08 08:00:42;;;;;;;71.10;18.13;;;3.50;99.90;;;;;;5078948;28;20509;-59
2022/11/08 08:03:11;;;;;;;150.33;18.50;;;3.50;99.90;;;;;;5080393;28;20428;-59
2022/11/08 08:05:39;;;;;;;59.03;12.67;;;3.60;99.90;;;;;;5082164;28;20435;-59
2022/11/08 08:08:05;;;;;;;27.60;9.73;;;3.60;99.90;;;;;;5081356;28;20444;-59
2022/11/08 08:10:32;;;;;;;16.63;9.10;;;3.60;99.90;;;;;;5085900;28;20443;-58
2022/11/08 08:12:57;;;;;;;17.80;8.67;;;3.60;99.90;;;;;;5067298;28;20496;-59
2022/11/08 08:15:24;;;;;;;9.80;5.20;;;3.60;99.90;;;;;;5078948;28;20427;-58
2022/11/08 08:17:50;;;;;;;11.30;6.10;;;3.70;99.90;;;;;;5074392;28;20430;-58
2022/11/08 08:20:16;;;;;;;11.00;6.30;;;3.70;99.90;;;;;;5079026;28;20443;-58
2022/11/08 08:22:45;;;;;;;13.37;7.03;;;3.80;99.90;;;;;;5085687;28;20624;-59
2022/11/08 08:25:12;;;;;;;25.27;9.70;;;3.80;99.90;;;;;;5079095;28;21123;-59
2022/11/08 08:27:37;;;;;;;30.60;12.20;;;3.90;99.90;;;;;;5087380;28;20408;-59
2022/11/08 08:30:04;;;;;;;28.63;11.57;;;3.90;99.90;;;;;;5080679;28;20479;-58
2022/11/08 08:32:29;;;;;;;19.97;10.20;;;3.90;99.90;;;;;;5088816;28;20166;-59
2022/11/08 08:34:55;;;;;;;15.63;8.43;;;4.00;99.90;;;;;;5088743;28;20455;-59
2022/11/08 08:37:20;;;;;;;14.90;6.23;;;4.10;99.90;;;;;;5085510;28;20188;-59
2022/11/08 08:39:46;;;;;;;14.43;6.67;;;4.20;99.90;;;;;;5080523;28;20857;-59
2022/11/08 08:42:12;;;;;;;15.27;6.50;;;4.30;99.90;;;;;;5074380;28;20170;-59
2022/11/08 08:44:37;;;;;;;11.00;6.07;;;4.40;99.90;;;;;;5085659;28;20664;-59
2022/11/08 08:47:03;;;;;;;30.07;7.43;;;4.50;99.90;;;;;;5071838;28;20231;-59
2022/11/08 08:49:29;;;;;;;14.00;6.03;;;4.60;99.90;;;;;;5086214;28;20201;-59
2022/11/08 08:51:54;;;;;;;7.00;4.70;;;4.60;99.90;;;;;;5078226;28;20431;-59
2022/11/08 08:54:20;;;;;;;5.97;4.50;;;4.70;99.90;;;;;;5068795;28;20202;-58
2022/11/08 08:56:45;;;;;;;5.40;4.20;;;4.70;99.90;;;;;;5086674;28;20170;-59
2022/11/08 08:59:17;;;;;;;4.17;3.53;;;4.80;99.90;;;;;;5071372;28;20206;-58
2022/11/08 09:01:43;;;;;;;5.33;3.80;;;4.90;99.90;;;;;;5079464;28;20185;-59
2022/11/08 09:04:08;;;;;;;8.13;4.70;;;5.00;99.90;;;;;;5059003;28;20432;-58
2022/11/08 09:06:34;;;;;;;13.80;4.77;;;5.10;99.90;;;;;;5087220;28;20174;-59
2022/11/08 09:08:59;;;;;;;10.13;5.63;;;5.30;99.90;;;;;;5083368;28;20205;-58
2022/11/08 09:11:25;;;;;;;16.30;7.30;;;5.50;99.90;;;;;;5072171;28;20253;-59
2022/11/08 09:13:51;;;;;;;9.87;5.33;;;5.60;99.90;;;;;;5070031;28;20296;-59
2022/11/08 09:16:16;;;;;;;8.43;5.43;;;5.80;99.90;;;;;;5070531;28;20787;-59
2022/11/08 09:18:42;;;;;;;11.13;4.33;;;6.00;99.90;;;;;;5086288;28;20227;-58
2022/11/08 09:21:08;;;;;;;42.90;6.07;;;6.10;99.90;;;;;;5088383;28;20176;-59
2022/11/08 09:23:33;;;;;;;8.87;5.30;;;6.30;99.90;;;;;;5080671;28;20183;-59
2022/11/08 09:26:01;;;;;;;8.40;5.90;;;6.40;99.90;;;;;;5084721;28;20663;-59
2022/11/08 09:28:30;;;;;;;7.23;5.00;;;6.50;99.90;;;;;;5079849;28;20208;-58
2022/11/08 09:31:05;;;;;;;8.23;5.93;;;6.60;99.90;;;;;;5081281;28;20436;-59
2022/11/08 09:33:31;;;;;;;12.63;5.93;;;6.70;99.90;;;;;;5082653;28;20467;-59
2022/11/08 09:35:59;;;;;;;8.90;6.27;;;6.70;99.90;;;;;;5081363;28;20435;-59
2022/11/08 09:38:25;;;;;;;12.67;6.50;;;6.70;99.90;;;;;;5056654;28;20695;-59
2022/11/08 09:41:02;;;;;;;10.43;6.50;;;6.70;99.90;;;;;;5076660;28;20429;-59
2022/11/08 09:43:47;;;;;;;11.23;6.30;;;6.80;99.90;;;;;;5087281;28;20205;-58
2022/11/08 09:46:23;;;;;;;10.10;5.87;;;6.80;99.90;;;;;;5070445;28;20432;-59
2022/11/08 09:48:51;;;;;;;10.30;6.53;;;6.90;99.90;;;;;;5080731;28;20871;-59
2022/11/08 09:51:21;;;;;;;9.87;6.27;;;7.00;99.90;;;;;;5076473;28;20513;-59
2022/11/08 09:53:50;;;;;;;13.93;8.60;;;7.10;99.90;;;;;;5064049;28;20455;-59
2022/11/08 09:56:33;;;;;;;18.40;7.30;;;7.10;99.90;;;;;;5073097;28;20408;-59
2022/11/08 09:59:14;;;;;;;13.70;6.97;;;7.20;99.90;;;;;;5069797;28;20524;-59
2022/11/08 10:01:41;;;;;;;10.37;6.87;;;7.30;99.90;;;;;;5075686;28;20906;-59
2022/11/08 10:04:19;;;;;;;12.37;7.73;;;7.30;99.90;;;;;;5083322;28;20459;-58
2022/11/08 10:06:54;;;;;;;20.37;11.00;;;7.40;99.90;;;;;;5092404;28;20427;-59
2022/11/08 10:09:25;;;;;;;21.53;11.57;;;7.50;99.90;;;;;;5086984;28;20450;-59
2022/11/08 10:12:01;;;;;;;19.70;11.90;;;7.60;99.90;;;;;;5077834;28;20442;-59
2022/11/08 10:14:46;;;;;;;20.17;11.30;;;7.70;99.90;;;;;;5093837;28;20596;-59
2022/11/08 10:17:31;;;;;;;17.63;10.43;;;7.80;99.90;;;;;;5086709;28;20430;-59
2022/11/08 10:20:17;;;;;;;19.80;10.87;;;7.90;99.90;;;;;;5080315;28;20423;-59
2022/11/08 10:23:01;;;;;;;17.23;10.30;;;8.00;99.90;;;;;;5081782;28;20473;-58
2022/11/08 10:25:37;;;;;;;16.93;9.77;;;8.00;99.90;;;;;;5089151;28;20431;-59
2022/11/08 10:28:05;;;;;;;19.40;10.90;;;8.10;99.90;;;;;;5080176;28;20498;-59
2022/11/08 10:30:39;;;;;;;16.87;10.20;;;8.20;99.90;;;;;;5075496;28;20412;-58
2022/11/08 10:33:16;;;;;;;18.53;10.63;;;8.30;99.90;;;;;;5077517;28;20459;-59
2022/11/08 10:35:59;;;;;;;16.90;10.47;;;8.40;99.90;;;;;;5077732;28;20500;-59
2022/11/08 10:38:34;;;;;;;17.83;9.50;;;8.60;99.90;;;;;;5064412;28;20848;-59
2022/11/08 10:41:14;;;;;;;39.93;12.03;;;8.70;99.90;;;;;;5080686;28;20408;-59
2022/11/08 10:43:41;;;;;;;17.87;9.73;;;8.80;99.90;;;;;;5091811;28;20423;-59
2022/11/08 10:46:39;;;;;;;18.23;10.53;;;8.80;99.90;;;;;;5090842;28;20949;-59
2022/11/08 10:49:31;;;;;;;23.60;12.00;;;8.90;99.90;;;;;;5067585;28;20479;-59
2022/11/08 10:51:59;;;;;;;16.77;10.77;;;9.00;99.90;;;;;;5090110;28;20427;-58
2022/11/08 10:54:46;;;;;;;18.33;10.80;;;9.20;99.90;;;;;;5083401;28;20490;-58
2022/11/08 10:57:15;;;;;;;23.73;10.57;;;9.40;99.90;;;;;;5086253;28;20851;-59
2022/11/08 10:59:42;;;;;;;28.33;10.90;;;9.70;99.90;;;;;;5086928;28;20455;-59
2022/11/08 11:02:34;;;;;;;17.97;9.53;;;10.00;99.90;;;;;;5083334;28;20433;-59
2022/11/08 11:05:15;;;;;;;26.03;9.40;;;10.30;99.90;;;;;;5083491;28;20474;-59
2022/11/08 11:07:44;;;;;;;19.90;10.10;;;10.50;99.90;;;;;;5091063;28;20435;-59
2022/11/08 11:10:16;;;;;;;17.20;8.87;;;10.70;99.90;;;;;;5079507;28;20451;-59
2022/11/08 11:12:47;;;;;;;26.63;10.40;;;10.80;99.90;;;;;;5089549;28;20427;-60
2022/11/08 11:15:16;;;;;;;19.10;9.27;;;10.90;99.90;;;;;;5091688;28;20451;-60
2022/11/08 11:17:45;;;;;;;25.73;10.50;;;10.90;99.90;;;;;;5083782;28;20957;-58
2022/11/08 11:20:22;;;;;;;22.40;10.23;;;10.90;99.90;;;;;;5079448;28;20444;-59
2022/11/08 11:22:50;;;;;;;20.47;10.47;;;11.00;99.90;;;;;;5067478;28;20447;-59
2022/11/08 11:25:19;;;;;;;20.57;9.13;;;11.00;99.90;;;;;;5083999;28;20935;-59
2022/11/08 11:27:52;;;;;;;15.87;9.97;;;11.00;99.90;;;;;;5079183;28;20423;-59
2022/11/08 11:30:23;;;;;;;22.60;9.30;;;11.10;99.90;;;;;;5085955;28;20515;-58
2022/11/08 11:32:58;;;;;;;20.73;7.53;;;11.10;99.90;;;;;;5090327;28;20917;-59
2022/11/08 11:35:33;;;;;;;14.00;7.10;;;11.10;99.90;;;;;;5084329;28;20426;-59
2022/11/08 11:38:02;;;;;;;17.80;7.23;;;11.20;99.90;;;;;;5080886;28;20424;-59
2022/11/08 11:40:44;;;;;;;18.53;6.50;;;11.30;99.90;;;;;;5070207;28;20459;-59
2022/11/08 11:43:28;;;;;;;14.03;6.00;;;11.70;99.90;;;;;;5081916;28;20428;-59
2022/11/08 11:46:20;;;;;;;16.90;12.33;;;12.20;99.90;;;;;;5073920;28;20428;-58
2022/11/08 11:48:52;;;;;;;11.10;6.10;;;12.40;99.90;;;;;;5056276;28;20463;-59
2022/11/08 11:51:17;;;;;;;8.43;5.30;;;12.50;99.90;;;;;;5084103;28;20427;-59
2022/11/08 11:53:43;;;;;;;7.20;4.97;;;12.50;99.90;;;;;;5075833;28;20451;-58
2022/11/08 11:56:51;;;;;;;13.00;5.60;;;12.60;99.90;;;;;;5079655;28;20253;-59
2022/11/08 11:59:39;;;;;;;9.57;5.40;;;12.90;99.90;;;;;;5062118;28;20213;-59
2022/11/08 12:02:34;;;;;;;10.70;4.90;;;13.50;99.90;;;;;;5088808;28;20430;-59
2022/11/08 12:05:12;;;;;;;5.63;5.03;;;14.10;98.50;;;;;;5081876;28;20431;-59
2022/11/08 12:07:50;;;;;;;10.37;5.33;;;14.50;90.80;;;;;;5066493;28;20437;-58
2022/11/08 12:10:19;;;;;;;13.97;6.00;;;14.80;87.10;;;;;;5070139;28;20959;-60
2022/11/08 12:13:29;;;;;;;10.33;4.90;;;15.00;78.30;;;;;;5056060;28;20440;-60
2022/11/08 12:16:16;;;;;;;6.77;5.00;;;14.90;76.10;;;;;;5083223;28;20440;-59
2022/11/08 12:19:01;;;;;;;9.47;4.53;;;14.70;78.20;;;;;;5072548;28;20431;-60
2022/11/08 12:21:43;;;;;;;9.90;5.00;;;14.50;80.10;;;;;;5081713;28;20432;-60
2022/11/08 12:24:49;;;;;;;7.93;5.20;;;14.00;83.40;;;;;;5083859;28;20537;-59
2022/11/08 12:27:37;;;;;;;8.77;5.13;;;13.60;87.80;;;;;;5086142;28;20817;-59
2022/11/08 12:30:16;;;;;;;9.40;5.87;;;13.20;91.50;;;;;;5086123;28;20456;-59
2022/11/08 12:33:10;;;;;;;8.20;5.60;;;12.90;94.20;;;;;;5082728;28;20436;-59
2022/11/08 12:36:06;;;;;;;7.70;4.90;;;12.60;95.10;;;;;;5084903;28;21471;-59
2022/11/08 12:39:09;;;;;;;10.17;4.90;;;12.40;96.50;;;;;;5086621;28;20782;-59
2022/11/08 12:41:47;;;;;;;15.13;5.70;;;12.20;98.50;;;;;;5080464;28;20597;-59
2022/11/08 12:44:26;;;;;;;7.27;5.07;;;12.10;98.30;;;;;;5065863;28;20425;-59
2022/11/08 12:47:18;;;;;;;6.20;5.03;;;12.10;99.10;;;;;;5075666;28;20503;-59
2022/11/08 12:50:15;;;;;;;7.13;5.43;;;12.00;99.30;;;;;;5081709;28;20448;-59
2022/11/08 12:53:25;;;;;;;8.33;5.23;;;12.00;99.30;;;;;;5078685;28;20911;-59
2022/11/08 12:55:55;;;;;;;10.00;5.40;;;11.90;99.70;;;;;;5050472;28;20413;-59
2022/11/08 12:58:44;;;;;;;9.60;5.63;;;11.90;99.20;;;;;;5085687;28;20428;-59
2022/11/08 13:01:16;;;;;;;12.50;5.07;;;11.80;98.90;;;;;;5076746;28;20426;-60
2022/11/08 13:03:41;;;;;;;9.00;5.13;;;11.80;98.80;;;;;;5089282;28;20953;-59
2022/11/08 13:06:11;;;;;;;7.60;4.93;;;11.80;99.50;;;;;;5083952;28;20434;-59
2022/11/08 13:08:48;;;;;;;10.03;5.40;;;11.80;99.90;;;;;;5078142;28;20175;-59
2022/11/08 13:11:23;;;;;;;8.67;5.20;;;11.80;99.90;;;;;;5087875;28;20424;-59
2022/11/08 13:13:52;;;;;;;7.50;4.67;;;11.80;99.90;;;;;;5084528;28;20459;-59
2022/11/08 13:16:25;;;;;;;6.10;5.37;;;11.80;99.90;;;;;;5086214;28;20476;-59
2022/11/08 13:18:50;;;;;;;7.90;5.40;;;11.80;99.90;;;;;;5074596;28;20444;-59
2022/11/08 13:21:28;;;;;;;6.20;4.63;;;11.80;99.90;;;;;;5086327;28;20420;-59